createdAt,value
2016-07-30T00:02:05.047Z,48.1
2016-07-30T00:07:05.014Z,48.0
2016-07-30T00:12:05.471Z,47.9
2016-07-30T00:17:07.116Z,48.0
2016-07-30T00:22:05.720Z,48.0
2016-07-30T00:27:04.699Z,48.1
2016-07-30T00:32:05.583Z,48.2
2016-07-30T00:37:05.145Z,48.1
2016-07-30T00:42:04.944Z,48.0
2016-07-30T00:47:04.880Z,48.2
2016-07-30T00:52:05.415Z,48.1
2016-07-30T00:57:04.546Z,48.2
2016-07-30T01:02:05.468Z,48.2
2016-07-30T01:07:05.065Z,48.1
2016-07-30T01:12:05.416Z,48.0
2016-07-30T01:17:07.492Z,48.1
2016-07-30T01:22:05.414Z,48.1
2016-07-30T01:27:04.657Z,47.9
2016-07-30T01:32:05.728Z,47.9
2016-07-30T01:37:05.085Z,48.2
2016-07-30T01:42:04.416Z,48.2
2016-07-30T01:47:05.408Z,48.2
2016-07-30T01:52:05.625Z,48.2
2016-07-30T01:57:04.763Z,48.1
2016-07-30T02:02:05.376Z,48.0
2016-07-30T02:07:05.793Z,48.1
2016-07-30T02:12:05.674Z,48.1
2016-07-30T02:17:07.481Z,48.2
2016-07-30T02:22:04.967Z,48.2
2016-07-30T02:27:04.588Z,48.2
2016-07-30T02:32:05.021Z,48.2
2016-07-30T02:37:05.770Z,48.2
2016-07-30T02:42:05.003Z,48.3
2016-07-30T02:47:05.218Z,48.2
2016-07-30T02:52:04.871Z,48.3
2016-07-30T02:57:05.288Z,48.1
2016-07-30T03:02:06.161Z,48.1
2016-07-30T03:07:05.161Z,48.1
2016-07-30T03:12:04.159Z,48.1
2016-07-30T03:17:11.117Z,48.0
2016-07-30T03:22:05.284Z,47.9
2016-07-30T03:27:05.554Z,48.1
2016-07-30T03:32:22.701Z,48.0
2016-07-30T03:37:05.669Z,48.0
2016-07-30T03:42:04.316Z,47.9
2016-07-30T03:47:25.451Z,47.7
2016-07-30T03:52:04.653Z,47.7
2016-07-30T03:57:04.521Z,47.8
2016-07-30T04:02:26.276Z,47.5
2016-07-30T04:07:04.911Z,47.6
2016-07-30T04:12:04.980Z,47.7
2016-07-30T04:17:24.760Z,47.6
2016-07-30T04:22:04.955Z,47.5
2016-07-30T04:27:05.793Z,47.5
2016-07-30T04:32:24.569Z,47.5
2016-07-30T04:37:03.797Z,47.3
2016-07-30T04:42:05.701Z,47.2
2016-07-30T04:47:22.419Z,47.1
2016-07-30T04:52:05.222Z,47.2
2016-07-30T04:57:04.873Z,46.9
2016-07-30T05:02:25.769Z,46.8
2016-07-30T05:07:05.430Z,46.8
2016-07-30T05:12:05.685Z,46.7
2016-07-30T05:17:22.822Z,46.6
2016-07-30T05:22:05.050Z,46.4
2016-07-30T05:27:05.238Z,46.4
2016-07-30T05:32:23.764Z,46.2
2016-07-30T05:37:05.129Z,46.2
2016-07-30T05:42:05.218Z,46.1
2016-07-30T05:47:21.836Z,46.2
2016-07-30T05:52:05.122Z,46.0
2016-07-30T05:57:04.953Z,46.2
2016-07-30T06:02:23.153Z,45.9
2016-07-30T06:07:05.101Z,45.7
2016-07-30T06:12:05.433Z,45.8
2016-07-30T06:17:23.076Z,46.5
2016-07-30T06:22:05.392Z,46.0
2016-07-30T06:27:05.597Z,45.9
2016-07-30T06:32:24.390Z,46.1
2016-07-30T06:37:05.049Z,46.1
2016-07-30T06:42:05.299Z,46.1
2016-07-30T06:47:28.345Z,46.1
2016-07-30T06:52:04.891Z,46.3
2016-07-30T06:57:05.158Z,46.3
2016-07-30T07:02:26.182Z,46.3
2016-07-30T07:07:04.994Z,46.4
2016-07-30T07:12:05.677Z,46.2
2016-07-30T07:17:28.891Z,46.2
2016-07-30T07:27:05.136Z,46.5
2016-07-30T07:32:29.181Z,46.3
2016-07-30T07:37:04.740Z,46.2
2016-07-30T07:42:05.881Z,46.6
2016-07-30T07:47:30.215Z,46.5
2016-07-30T07:52:04.856Z,46.3
2016-07-30T07:57:05.166Z,46.2
2016-07-30T08:02:30.816Z,46.4
2016-07-30T08:07:04.938Z,46.2
2016-07-30T08:12:04.822Z,46.2
2016-07-30T08:17:30.993Z,45.8
2016-07-30T08:22:05.272Z,45.8
2016-07-30T08:27:05.129Z,46.1
2016-07-30T08:32:29.753Z,45.6
2016-07-30T08:37:05.327Z,45.3
2016-07-30T08:42:04.932Z,45.9
2016-07-30T08:47:28.048Z,45.9
2016-07-30T08:52:04.926Z,46.3
2016-07-30T08:57:05.412Z,46.4
2016-07-30T09:02:28.131Z,47.0
2016-07-30T09:07:04.682Z,47.1
2016-07-30T09:12:05.294Z,46.7
2016-07-30T09:17:32.895Z,46.7
2016-07-30T09:22:05.741Z,46.0
2016-07-30T09:27:04.821Z,47.0
2016-07-30T09:32:26.618Z,47.5
2016-07-30T09:37:05.309Z,47.6
2016-07-30T09:42:04.892Z,48.0
2016-07-30T09:47:28.561Z,48.0
2016-07-30T09:52:04.613Z,47.9
2016-07-30T09:57:03.940Z,47.6
2016-07-30T10:02:32.919Z,47.5
2016-07-30T10:07:04.365Z,46.9
2016-07-30T10:12:05.854Z,46.8
2016-07-30T10:17:28.594Z,46.8
2016-07-30T10:22:04.667Z,47.5
2016-07-30T10:27:04.811Z,47.2
2016-07-30T10:32:36.034Z,46.5
2016-07-30T10:37:04.797Z,46.7
2016-07-30T10:42:04.770Z,46.7
2016-07-30T10:47:29.362Z,47.0
2016-07-30T10:52:05.555Z,47.6
2016-07-30T10:57:04.571Z,47.2
2016-07-30T11:02:36.370Z,47.3
2016-07-30T11:07:04.233Z,46.5
2016-07-30T11:12:04.460Z,46.5
2016-07-30T11:17:40.070Z,47.1
2016-07-30T11:22:05.017Z,47.0
2016-07-30T11:27:05.225Z,46.7
2016-07-30T11:32:38.108Z,46.7
2016-07-30T11:37:05.040Z,46.6
2016-07-30T11:42:04.746Z,46.3
2016-07-30T11:47:30.311Z,46.6
2016-07-30T11:52:05.204Z,46.3
2016-07-30T11:57:04.358Z,46.3
2016-07-30T12:02:38.424Z,45.9
2016-07-30T12:07:04.636Z,45.5
2016-07-30T12:12:04.615Z,45.8
2016-07-30T12:22:04.359Z,45.4
2016-07-30T12:27:09.641Z,46.4
2016-07-30T12:32:38.188Z,46.4
2016-07-30T12:37:04.862Z,44.7
2016-07-30T12:42:04.974Z,45.8
2016-07-30T12:47:38.585Z,46.2
2016-07-30T12:52:04.178Z,46.2
2016-07-30T12:57:05.993Z,46.5
2016-07-30T13:02:38.455Z,46.4
2016-07-30T13:07:04.043Z,45.4
2016-07-30T13:12:04.322Z,45.4
2016-07-30T13:17:38.172Z,45.7
2016-07-30T13:22:04.980Z,46.0
2016-07-30T13:27:04.805Z,45.8
2016-07-30T13:32:33.313Z,46.5
2016-07-30T13:37:05.123Z,45.9
2016-07-30T13:42:04.722Z,46.1
2016-07-30T13:47:38.069Z,45.8
2016-07-30T13:52:04.825Z,45.8
2016-07-30T13:57:04.727Z,46.1
2016-07-30T20:02:05.540Z,47.2
2016-07-30T20:07:05.831Z,47.3
2016-07-30T20:12:05.445Z,46.8
2016-07-30T20:17:06.604Z,46.9
2016-07-30T20:22:04.974Z,46.9
2016-07-30T20:27:04.624Z,46.9
2016-07-30T20:32:05.190Z,46.9
2016-07-30T20:37:04.883Z,46.8
2016-07-30T20:42:04.672Z,46.8
2016-07-30T20:47:05.564Z,46.9
2016-07-30T20:52:04.387Z,46.8
2016-07-30T20:57:04.857Z,46.8
2016-07-30T21:02:05.116Z,46.8
2016-07-30T21:07:05.498Z,46.7
2016-07-30T21:12:05.597Z,46.9
2016-07-30T21:17:07.083Z,46.9
2016-07-30T21:22:04.470Z,46.8
2016-07-30T21:27:05.354Z,46.9
2016-07-30T21:32:07.991Z,46.8
2016-07-30T21:37:05.928Z,46.8
2016-07-30T21:42:05.149Z,46.9
2016-07-30T21:47:05.247Z,46.6
2016-07-30T21:52:05.085Z,46.6
2016-07-30T21:57:05.020Z,46.7
2016-07-30T22:02:05.303Z,46.3
2016-07-30T22:07:05.467Z,46.4
2016-07-30T22:12:05.145Z,46.3
2016-07-30T22:17:06.541Z,46.3
2016-07-30T22:22:04.988Z,46.3
2016-07-30T22:27:05.610Z,46.2
2016-07-30T22:32:04.981Z,46.3
2016-07-30T22:37:04.900Z,46.4
2016-07-30T22:42:06.960Z,46.3
2016-07-30T22:47:08.131Z,46.2
2016-07-30T22:52:05.653Z,46.3
2016-07-30T22:57:04.752Z,46.2
2016-07-30T23:02:07.466Z,46.3
2016-07-30T23:07:05.491Z,46.3
2016-07-30T23:12:04.938Z,46.3
2016-07-30T23:17:07.482Z,46.4
2016-07-30T23:22:05.524Z,46.4
2016-07-30T23:27:05.459Z,46.5
2016-07-30T23:32:05.163Z,46.5
2016-07-30T23:37:05.197Z,46.4
2016-07-30T23:42:05.561Z,46.4
2016-07-30T23:47:05.580Z,46.5
2016-07-30T23:52:05.323Z,46.5
2016-07-30T23:57:05.410Z,46.3
